Time;durP1;ratioP1;P1;durP2;ratioP2;P2;SDS_P1;SDS_P2;PMS_P1;PMS_P2;Temp;Humidity;BMP_temperature;BMP_pressure;BME280_temperature;BME280_humidity;BME280_pressure;Samples;Min_cycle;Max_cycle;Signal;HPM_P1;HPM_P2
2022/12/09 00:00:10;;;;;;;21.07;12.97;;;-0.20;99.90;;;;;;5135066;22;20228;-90
2022/12/09 00:02:36;;;;;;;20.33;12.97;;;-0.20;99.90;;;;;;5072191;28;20181;-90
2022/12/09 00:05:02;;;;;;;21.60;11.33;;;-0.20;99.90;;;;;;5055145;28;20198;-91
2022/12/09 00:07:28;;;;;;;19.47;12.20;;;-0.20;99.90;;;;;;5071596;28;20241;-92
2022/12/09 00:09:58;;;;;;;21.40;12.03;;;-0.10;99.90;;;;;;5055643;28;20660;-92
2022/12/09 00:12:24;;;;;;;20.17;12.60;;;-0.20;99.90;;;;;;5055532;28;20173;-91
2022/12/09 00:14:50;;;;;;;22.13;12.90;;;-0.20;99.90;;;;;;5055476;28;20199;-92
2022/12/09 00:17:17;;;;;;;18.50;11.83;;;-0.20;99.90;;;;;;5073132;28;20171;-90
2022/12/09 00:19:43;;;;;;;21.17;12.27;;;-0.30;99.90;;;;;;5055262;28;20181;-92
2022/12/09 00:22:09;;;;;;;20.13;11.90;;;-0.30;99.90;;;;;;5055310;28;20226;-91
2022/12/09 00:24:34;;;;;;;20.07;11.17;;;-0.30;99.90;;;;;;5055270;28;20173;-93
2022/12/09 00:27:01;;;;;;;18.13;11.37;;;-0.30;99.90;;;;;;5055241;28;20255;-91
2022/12/09 00:29:27;;;;;;;19.27;12.17;;;-0.30;99.90;;;;;;5072988;28;20169;-92
2022/12/09 00:31:53;;;;;;;19.53;11.77;;;-0.40;99.90;;;;;;5072668;28;20165;-92
2022/12/09 00:34:19;;;;;;;19.70;11.00;;;-0.40;99.90;;;;;;5054640;28;20172;-92
2022/12/09 00:36:44;;;;;;;18.33;11.33;;;-0.50;99.90;;;;;;5055077;28;20165;-92
2022/12/09 00:39:13;;;;;;;17.83;11.80;;;-0.50;99.90;;;;;;5054809;28;20208;-91
2022/12/09 00:41:39;;;;;;;19.50;10.80;;;-0.50;99.90;;;;;;5055148;28;20178;-93
2022/12/09 00:44:05;;;;;;;18.37;11.10;;;-0.60;99.90;;;;;;5054757;28;20252;-93
2022/12/09 00:46:31;;;;;;;21.40;11.33;;;-0.50;99.90;;;;;;5054573;28;20704;-90
2022/12/09 00:48:57;;;;;;;16.43;10.50;;;-0.60;99.90;;;;;;5056570;28;20299;-92
2022/12/09 00:51:24;;;;;;;19.80;11.20;;;-0.70;99.90;;;;;;5058570;28;20173;-91
2022/12/09 00:53:53;;;;;;;18.17;10.90;;;-0.70;99.90;;;;;;5058558;28;20206;-92
2022/12/09 00:56:20;;;;;;;18.17;10.87;;;-0.70;99.90;;;;;;5058588;28;20641;-91
2022/12/09 00:58:47;;;;;;;17.57;11.00;;;-0.60;99.90;;;;;;5058051;28;20229;-92
2022/12/09 01:01:12;;;;;;;17.77;10.40;;;-0.60;99.90;;;;;;5058256;28;20300;-94
2022/12/09 01:03:39;;;;;;;15.53;9.60;;;-0.70;99.90;;;;;;5058443;28;20717;-90
2022/12/09 01:06:09;;;;;;;16.47;10.50;;;-0.70;99.90;;;;;;5058507;28;20166;-91
2022/12/09 01:08:35;;;;;;;18.13;10.77;;;-0.70;99.90;;;;;;5058353;28;20217;-89
2022/12/09 01:11:08;;;;;;;18.60;10.60;;;-0.80;99.90;;;;;;5058572;28;20241;-90
2022/12/09 01:13:35;;;;;;;18.67;10.97;;;-0.80;99.90;;;;;;5058780;28;20259;-89
2022/12/09 01:16:01;;;;;;;16.63;10.07;;;-0.80;99.90;;;;;;5058754;28;20280;-91
2022/12/09 01:18:27;;;;;;;15.97;9.60;;;-0.80;99.90;;;;;;5058174;28;20287;-93
2022/12/09 01:20:58;;;;;;;13.17;8.57;;;-0.80;99.90;;;;;;5058138;28;20589;-92
2022/12/09 01:23:24;;;;;;;11.53;7.97;;;-0.80;99.90;;;;;;5058346;28;20545;-90
2022/12/09 01:25:50;;;;;;;11.93;7.97;;;-0.80;99.90;;;;;;5058190;28;20177;-91
2022/12/09 01:28:16;;;;;;;15.93;8.57;;;-0.80;99.90;;;;;;5057840;28;20364;-94
2022/12/09 01:30:42;;;;;;;11.90;7.97;;;-0.80;99.90;;;;;;5058005;28;20572;-89
2022/12/09 01:33:07;;;;;;;11.90;8.50;;;-0.70;99.90;;;;;;5057796;28;20227;-92
2022/12/09 01:35:33;;;;;;;12.23;8.03;;;-0.70;99.90;;;;;;5058249;28;20165;-89
2022/12/09 01:37:59;;;;;;;11.77;8.10;;;-0.70;99.90;;;;;;5057920;28;20197;-92
2022/12/09 01:40:27;;;;;;;12.03;8.40;;;-0.70;99.90;;;;;;5075735;28;20165;-92
2022/12/09 01:42:53;;;;;;;12.17;8.13;;;-0.70;99.90;;;;;;5058037;28;20201;-90
2022/12/09 01:45:18;;;;;;;10.53;7.70;;;-0.70;99.90;;;;;;5057949;28;20251;-91
2022/12/09 01:48:05;;;;;;;12.60;8.47;;;-0.70;99.90;;;;;;5057622;28;20220;-91
2022/12/09 01:50:34;;;;;;;13.43;8.33;;;-0.70;99.90;;;;;;5058317;28;20177;-93
2022/12/09 01:53:00;;;;;;;11.50;8.10;;;-0.60;99.90;;;;;;5057499;28;20184;-93
2022/12/09 01:55:26;;;;;;;14.67;8.77;;;-0.60;99.90;;;;;;5075549;28;20165;-91
2022/12/09 01:57:52;;;;;;;14.00;8.33;;;-0.60;99.90;;;;;;5057365;28;20210;-91
2022/12/09 02:00:19;;;;;;;11.83;8.43;;;-0.60;99.90;;;;;;5056477;28;20221;-90
2022/12/09 02:02:47;;;;;;;15.47;9.00;;;-0.50;99.90;;;;;;5057748;28;20173;-93
2022/12/09 02:05:13;;;;;;;14.57;9.00;;;-0.50;99.90;;;;;;5057417;28;20173;-92
2022/12/09 02:07:40;;;;;;;12.60;8.57;;;-0.60;99.90;;;;;;5056997;28;20221;-89
2022/12/09 02:10:11;;;;;;;11.00;7.93;;;-0.60;99.90;;;;;;5075514;28;20154;-90
2022/12/09 02:12:56;;;;;;;13.23;8.23;;;-0.60;99.90;;;;;;5057463;28;20196;-89
2022/12/09 02:15:51;;;;;;;13.43;8.93;;;-0.60;99.90;;;;;;5057445;28;20165;-90
2022/12/09 02:18:33;;;;;;;15.07;8.60;;;-0.60;99.90;;;;;;5039888;28;20205;-92
2022/12/09 02:21:33;;;;;;;14.20;8.77;;;-0.50;99.90;;;;;;5057441;28;20177;-89
2022/12/09 02:24:22;;;;;;;13.13;8.50;;;-0.50;99.90;;;;;;5058227;28;20635;-91
2022/12/09 02:26:56;;;;;;;14.63;9.40;;;-0.50;99.90;;;;;;5057933;28;20231;-92
2022/12/09 02:29:33;;;;;;;12.97;8.97;;;-0.40;99.90;;;;;;5057478;28;20193;-90
2022/12/09 02:32:05;;;;;;;14.53;9.70;;;-0.40;99.90;;;;;;5057511;28;20177;-92
2022/12/09 02:34:32;;;;;;;13.60;9.20;;;-0.40;99.90;;;;;;5057409;28;20564;-94
2022/12/09 02:37:18;;;;;;;12.93;9.00;;;-0.40;99.90;;;;;;5057071;28;20582;-93
2022/12/09 02:40:19;;;;;;;12.07;8.37;;;-0.40;99.90;;;;;;5057261;28;20173;-91
2022/12/09 02:42:47;;;;;;;13.17;8.00;;;-0.40;99.90;;;;;;5013737;28;20189;-91
2022/12/09 02:45:15;;;;;;;13.77;8.23;;;-0.50;99.90;;;;;;5056998;28;20227;-91
2022/12/09 02:47:47;;;;;;;11.57;7.77;;;-0.50;99.90;;;;;;5057075;28;20232;-92
2022/12/09 02:50:16;;;;;;;14.20;8.77;;;-0.50;99.90;;;;;;5056981;28;20184;-92
2022/12/09 02:52:44;;;;;;;18.37;9.13;;;-0.50;99.90;;;;;;5056906;28;20177;-90
2022/12/09 02:55:14;;;;;;;13.60;8.40;;;-0.40;99.90;;;;;;5056928;28;20180;-92
2022/12/09 02:57:40;;;;;;;12.90;8.10;;;-0.40;99.90;;;;;;5056920;28;20197;-93
2022/12/09 03:00:07;;;;;;;17.60;8.17;;;-0.40;99.90;;;;;;5074337;28;20501;-90
2022/12/09 03:02:45;;;;;;;13.23;8.37;;;-0.50;99.90;;;;;;5056721;28;20185;-93
2022/12/09 03:05:46;;;;;;;12.90;8.13;;;-0.50;99.90;;;;;;5056603;28;20177;-90
2022/12/09 03:08:27;;;;;;;13.70;8.13;;;-0.50;99.90;;;;;;5074171;28;20212;-90
2022/12/09 03:10:56;;;;;;;10.40;7.43;;;-0.60;99.90;;;;;;5056053;28;20175;-89
2022/12/09 03:16:44;;;;;;;12.53;8.13;;;-0.60;99.90;;;;;;5253202;22;20329;-91
2022/12/09 03:19:30;;;;;;;13.73;8.90;;;-0.60;99.90;;;;;;5017235;28;20270;-92
2022/12/09 03:22:00;;;;;;;15.03;9.10;;;-0.60;99.90;;;;;;5017638;28;20194;-92
2022/12/09 03:24:37;;;;;;;13.97;8.43;;;-0.60;99.90;;;;;;5017667;28;20193;-91
2022/12/09 03:27:10;;;;;;;15.13;9.13;;;-0.60;99.90;;;;;;5017394;28;20182;-92
2022/12/09 03:29:40;;;;;;;16.43;8.90;;;-0.60;99.90;;;;;;5052795;28;20181;-92
2022/12/09 03:32:09;;;;;;;14.33;8.13;;;-0.60;99.90;;;;;;5037355;28;20174;-92
2022/12/09 03:34:38;;;;;;;15.63;9.50;;;-0.70;99.90;;;;;;5036982;28;20178;-92
2022/12/09 03:37:06;;;;;;;17.30;10.67;;;-0.70;99.90;;;;;;5037329;28;20219;-91
2022/12/09 03:39:35;;;;;;;15.80;10.03;;;-0.70;99.90;;;;;;5054899;28;20238;-92
2022/12/09 03:42:05;;;;;;;17.23;9.63;;;-0.70;99.90;;;;;;5037060;28;20186;-92
2022/12/09 03:44:46;;;;;;;14.03;8.73;;;-0.60;99.90;;;;;;5036882;28;20176;-92
2022/12/09 03:47:13;;;;;;;14.10;8.20;;;-0.70;99.90;;;;;;5037117;28;20205;-91
2022/12/09 03:49:39;;;;;;;14.60;8.70;;;-0.80;99.90;;;;;;5037463;28;20513;-92
2022/12/09 03:52:16;;;;;;;14.10;8.83;;;-0.80;99.90;;;;;;5037519;28;20178;-91
2022/12/09 03:54:48;;;;;;;14.47;8.90;;;-0.90;99.90;;;;;;5037543;28;20174;-91
2022/12/09 03:57:31;;;;;;;13.43;7.93;;;-0.90;99.90;;;;;;5037392;28;20197;-90
2022/12/09 03:59:59;;;;;;;10.20;7.23;;;-0.90;99.90;;;;;;5033885;28;20178;-91
2022/12/09 04:02:26;;;;;;;16.00;8.20;;;-1.00;99.90;;;;;;5017594;28;20178;-91
2022/12/09 04:04:52;;;;;;;12.60;7.57;;;-1.00;99.90;;;;;;5017240;28;20189;-91
2022/12/09 04:07:20;;;;;;;11.13;7.40;;;-1.10;99.90;;;;;;5017653;28;20206;-90
2022/12/09 04:09:45;;;;;;;13.73;7.93;;;-1.10;99.90;;;;;;5017599;28;20517;-91
2022/12/09 04:12:11;;;;;;;12.73;7.60;;;-1.20;99.90;;;;;;5017566;28;20178;-91
2022/12/09 04:14:37;;;;;;;13.80;7.97;;;-1.30;99.90;;;;;;5018306;28;20178;-90
2022/12/09 04:17:11;;;;;;;12.23;6.90;;;-1.40;99.90;;;;;;5037360;28;20179;-91
2022/12/09 04:19:37;;;;;;;13.13;8.13;;;-1.40;99.90;;;;;;5053631;28;20173;-90
2022/12/09 04:22:03;;;;;;;12.43;7.57;;;-1.50;99.90;;;;;;5055091;28;20672;-90
2022/12/09 04:24:29;;;;;;;11.60;7.10;;;-1.50;99.90;;;;;;5036631;28;20174;-90
2022/12/09 04:27:06;;;;;;;12.57;8.20;;;-1.50;99.90;;;;;;5036894;28;20182;-90
2022/12/09 04:29:32;;;;;;;11.57;7.80;;;-1.40;99.90;;;;;;5053792;28;20185;-89
2022/12/09 04:31:57;;;;;;;11.20;7.50;;;-1.40;99.90;;;;;;5059402;28;20173;-90
2022/12/09 04:34:23;;;;;;;13.43;8.03;;;-1.30;99.90;;;;;;5077039;28;20253;-89
2022/12/09 04:36:50;;;;;;;12.80;7.90;;;-1.40;99.90;;;;;;5076931;28;20305;-90
2022/12/09 04:39:15;;;;;;;14.03;8.50;;;-1.30;99.90;;;;;;5074712;28;20180;-88
2022/12/09 04:41:41;;;;;;;13.90;8.43;;;-1.40;99.90;;;;;;5056733;28;20169;-88
2022/12/09 04:44:07;;;;;;;14.30;7.90;;;-1.30;99.90;;;;;;5056765;28;20623;-89
2022/12/09 04:46:34;;;;;;;14.03;8.63;;;-1.30;99.90;;;;;;5056272;28;20208;-89
2022/12/09 04:48:59;;;;;;;14.30;7.87;;;-1.30;99.90;;;;;;5073363;28;20212;-89
2022/12/09 04:51:25;;;;;;;13.67;8.33;;;-1.30;99.90;;;;;;5057046;28;20169;-89
2022/12/09 04:53:51;;;;;;;14.40;8.60;;;-1.30;99.90;;;;;;5069427;28;20521;-89
2022/12/09 04:56:19;;;;;;;14.03;8.20;;;-1.20;99.90;;;;;;5076910;28;20183;-89
2022/12/09 04:58:46;;;;;;;13.07;8.70;;;-1.20;99.90;;;;;;5076723;28;20557;-89
2022/12/09 05:01:14;;;;;;;12.63;7.90;;;-1.20;99.90;;;;;;5093054;28;20181;-88
2022/12/09 05:03:40;;;;;;;18.00;8.97;;;-1.20;99.90;;;;;;5076736;28;20208;-89
2022/12/09 05:06:11;;;;;;;15.33;8.90;;;-1.20;99.90;;;;;;5076599;28;20252;-88
2022/12/09 05:08:44;;;;;;;15.60;9.00;;;-1.20;99.90;;;;;;5076603;28;20212;-90
2022/12/09 05:11:09;;;;;;;15.50;8.53;;;-1.20;99.90;;;;;;5076611;28;20737;-89
2022/12/09 05:13:36;;;;;;;12.73;8.20;;;-1.20;99.90;;;;;;5076642;28;20215;-89
2022/12/09 05:16:07;;;;;;;12.77;7.90;;;-1.10;99.90;;;;;;5076346;28;20242;-90
2022/12/09 05:18:36;;;;;;;15.90;8.50;;;-1.10;99.90;;;;;;5076537;28;20180;-89
2022/12/09 05:21:06;;;;;;;16.03;9.40;;;-1.20;99.90;;;;;;5076680;28;20199;-89
2022/12/09 05:23:33;;;;;;;16.63;9.77;;;-1.10;99.90;;;;;;5094246;28;20177;-89
2022/12/09 05:26:06;;;;;;;15.57;9.20;;;-1.10;99.90;;;;;;5076386;28;20550;-89
2022/12/09 05:28:33;;;;;;;17.03;9.30;;;-1.00;99.90;;;;;;5076407;28;20220;-88
2022/12/09 05:31:01;;;;;;;15.53;8.90;;;-1.00;99.90;;;;;;5076339;28;20259;-89
2022/12/09 05:33:27;;;;;;;15.70;9.60;;;-1.00;99.90;;;;;;5094559;28;20183;-90
2022/12/09 05:35:53;;;;;;;17.17;9.03;;;-1.00;99.90;;;;;;5078148;28;20272;-89
2022/12/09 05:38:21;;;;;;;15.07;9.03;;;-1.00;99.90;;;;;;5079785;28;20322;-89
2022/12/09 05:40:48;;;;;;;14.77;8.97;;;-1.00;99.90;;;;;;5079937;28;20998;-89
2022/12/09 05:43:13;;;;;;;15.77;9.00;;;-1.10;99.90;;;;;;5079855;28;20172;-89
2022/12/09 05:45:39;;;;;;;15.60;8.93;;;-1.10;99.90;;;;;;5079858;28;20180;-90
2022/12/09 05:48:05;;;;;;;13.53;8.87;;;-1.10;99.90;;;;;;5079878;28;20208;-88
2022/12/09 05:50:31;;;;;;;17.77;9.60;;;-1.00;99.90;;;;;;5079949;28;20173;-89
2022/12/09 05:52:57;;;;;;;16.13;9.17;;;-1.00;99.90;;;;;;5079994;28;20188;-89
2022/12/09 05:55:23;;;;;;;16.13;9.80;;;-1.00;99.90;;;;;;5079732;28;20520;-89
2022/12/09 05:57:49;;;;;;;17.57;9.90;;;-1.10;99.90;;;;;;5079443;28;20176;-89
2022/12/09 06:00:15;;;;;;;20.80;9.77;;;-1.00;99.90;;;;;;5079565;28;20176;-89
2022/12/09 06:02:41;;;;;;;15.53;9.63;;;-1.10;99.90;;;;;;5079527;28;20179;-89
2022/12/09 06:05:08;;;;;;;16.17;9.60;;;-1.00;99.90;;;;;;5097372;28;20185;-89
2022/12/09 06:07:35;;;;;;;16.80;10.80;;;-1.00;99.90;;;;;;5097292;28;20200;-89
2022/12/09 06:10:01;;;;;;;19.70;10.27;;;-1.00;99.90;;;;;;5079715;28;20172;-90
2022/12/09 06:12:27;;;;;;;20.50;12.73;;;-1.00;99.90;;;;;;5079450;28;20208;-89
2022/12/09 06:14:52;;;;;;;26.20;13.47;;;-0.90;99.90;;;;;;5078690;28;20239;-89
2022/12/09 06:17:19;;;;;;;16.03;10.13;;;-0.90;99.90;;;;;;5079430;28;20188;-89
2022/12/09 06:19:44;;;;;;;17.30;10.97;;;-0.90;99.90;;;;;;5078704;28;20188;-90
2022/12/09 06:22:10;;;;;;;16.53;10.27;;;-1.00;99.90;;;;;;5078559;28;20192;-89
2022/12/09 06:24:36;;;;;;;15.43;9.33;;;-0.90;99.90;;;;;;5078872;28;20177;-89
2022/12/09 06:27:02;;;;;;;23.03;10.30;;;-0.80;99.90;;;;;;5096972;28;20180;-89
2022/12/09 06:29:29;;;;;;;17.03;9.60;;;-0.80;99.90;;;;;;5078840;28;20184;-89
2022/12/09 06:31:55;;;;;;;21.80;10.30;;;-0.90;99.90;;;;;;5079001;28;20169;-90
2022/12/09 06:34:20;;;;;;;16.37;10.43;;;-0.90;99.90;;;;;;5078683;28;20192;-89
2022/12/09 06:36:46;;;;;;;19.57;10.47;;;-0.90;99.90;;;;;;5076085;28;20180;-89
2022/12/09 06:39:20;;;;;;;22.17;11.50;;;-0.90;99.90;;;;;;5058897;28;20524;-89
2022/12/09 06:41:46;;;;;;;22.60;11.70;;;-0.90;99.90;;;;;;5076688;28;20249;-89
2022/12/09 06:44:12;;;;;;;20.90;11.70;;;-0.90;99.90;;;;;;5058326;28;20204;-91
2022/12/09 06:46:38;;;;;;;19.20;10.70;;;-0.90;99.90;;;;;;5058345;28;20672;-89
2022/12/09 06:49:04;;;;;;;20.17;11.77;;;-0.90;99.90;;;;;;5060226;28;20220;-89
2022/12/09 06:51:29;;;;;;;17.47;9.83;;;-0.90;99.90;;;;;;5076985;28;20226;-89
2022/12/09 06:53:55;;;;;;;20.80;11.67;;;-0.80;99.90;;;;;;5075094;28;20517;-89
2022/12/09 06:56:21;;;;;;;20.27;12.03;;;-0.80;99.90;;;;;;5077429;28;20492;-89
2022/12/09 06:58:47;;;;;;;18.03;10.63;;;-0.80;99.90;;;;;;5076217;28;20179;-89
2022/12/09 07:01:17;;;;;;;54.17;32.57;;;-0.80;99.90;;;;;;5062623;28;20284;-89
2022/12/09 07:03:45;;;;;;;23.70;13.47;;;-0.90;99.90;;;;;;5057153;28;20184;-89
2022/12/09 07:06:24;;;;;;;16.63;10.60;;;-0.90;99.90;;;;;;5056793;28;20181;-89
2022/12/09 07:08:50;;;;;;;20.70;11.40;;;-1.00;99.90;;;;;;5056999;28;20270;-86
2022/12/09 07:11:16;;;;;;;18.67;10.77;;;-0.90;99.90;;;;;;5056447;28;20208;-87
2022/12/09 07:13:41;;;;;;;19.33;10.73;;;-0.90;99.90;;;;;;5056504;28;20185;-86
2022/12/09 07:16:07;;;;;;;16.37;10.67;;;-1.00;99.90;;;;;;5075035;28;20224;-88
2022/12/09 07:18:33;;;;;;;14.93;10.17;;;-1.00;99.90;;;;;;5074884;28;20184;-87
2022/12/09 07:21:06;;;;;;;19.30;10.77;;;-1.00;99.90;;;;;;5076520;28;20634;-88
2022/12/09 07:23:32;;;;;;;17.90;10.57;;;-1.00;99.90;;;;;;5075903;28;20187;-88
2022/12/09 07:26:00;;;;;;;18.63;10.93;;;-1.00;99.90;;;;;;5076689;28;20181;-87
2022/12/09 07:28:27;;;;;;;12.50;8.27;;;-1.10;99.90;;;;;;5076287;28;20242;-88
2022/12/09 07:30:53;;;;;;;15.40;9.13;;;-1.10;99.90;;;;;;5075424;28;20644;-88
2022/12/09 07:33:19;;;;;;;17.30;9.53;;;-1.00;99.90;;;;;;5075789;28;20180;-88
2022/12/09 07:35:44;;;;;;;15.70;9.83;;;-1.00;99.90;;;;;;5076208;28;20183;-88
2022/12/09 07:38:10;;;;;;;22.00;11.40;;;-1.10;99.90;;;;;;5076047;28;20274;-87
2022/12/09 07:40:39;;;;;;;16.47;9.63;;;-1.20;99.90;;;;;;5075660;28;20183;-88
2022/12/09 07:43:06;;;;;;;17.57;9.70;;;-1.10;99.90;;;;;;5076844;28;20193;-88
2022/12/09 07:45:35;;;;;;;17.23;10.27;;;-1.10;99.90;;;;;;5076383;28;20181;-87
2022/12/09 07:48:01;;;;;;;13.67;8.77;;;-1.20;99.90;;;;;;5075341;28;20239;-87
2022/12/09 07:50:27;;;;;;;16.17;9.73;;;-1.20;99.90;;;;;;5093607;28;20185;-87
2022/12/09 07:52:53;;;;;;;15.43;9.63;;;-1.20;99.90;;;;;;5075967;28;20184;-85
2022/12/09 07:55:19;;;;;;;16.27;10.10;;;-1.20;99.90;;;;;;5075741;28;20630;-86
2022/12/09 07:57:44;;;;;;;15.90;9.77;;;-1.20;99.90;;;;;;5074959;28;20180;-87
2022/12/09 08:00:11;;;;;;;15.40;9.60;;;-1.10;99.90;;;;;;5093534;28;20184;-87
2022/12/09 08:02:36;;;;;;;15.83;9.43;;;-1.10;99.90;;;;;;5076134;28;20188;-88
2022/12/09 08:05:02;;;;;;;19.00;10.40;;;-1.10;99.90;;;;;;5076579;28;20679;-88
2022/12/09 08:07:29;;;;;;;18.27;10.53;;;-1.10;99.90;;;;;;5075799;28;20205;-88
2022/12/09 08:09:55;;;;;;;15.67;9.13;;;-1.00;99.90;;;;;;5076044;28;20531;-88
2022/12/09 08:12:22;;;;;;;18.07;9.93;;;-1.00;99.90;;;;;;5075674;28;20183;-87
2022/12/09 08:14:48;;;;;;;18.60;11.53;;;-0.90;99.90;;;;;;5075070;28;20233;-87
2022/12/09 08:17:14;;;;;;;21.10;12.20;;;-0.90;99.90;;;;;;5075763;28;20183;-87
2022/12/09 08:19:40;;;;;;;21.43;12.37;;;-0.80;99.90;;;;;;5076266;28;20180;-87
2022/12/09 08:22:06;;;;;;;19.73;11.20;;;-0.80;99.90;;;;;;5072247;28;20177;-87
2022/12/09 08:24:31;;;;;;;22.77;12.23;;;-0.70;99.90;;;;;;5064466;28;20221;-87
2022/12/09 08:26:57;;;;;;;24.30;13.40;;;-0.60;99.90;;;;;;5064606;28;20184;-86
2022/12/09 08:29:25;;;;;;;22.00;11.47;;;-0.60;99.90;;;;;;5075959;28;20295;-87
2022/12/09 08:31:51;;;;;;;18.50;11.97;;;-0.50;99.90;;;;;;5069022;28;20200;-88
2022/12/09 08:34:17;;;;;;;18.57;10.40;;;-0.50;99.90;;;;;;5068400;28;20220;-87
2022/12/09 08:36:43;;;;;;;19.90;12.20;;;-0.40;99.90;;;;;;5067736;28;20269;-88
2022/12/09 08:39:10;;;;;;;31.50;14.53;;;-0.40;99.90;;;;;;5065023;28;20181;-87
2022/12/09 08:41:37;;;;;;;24.60;13.87;;;-0.30;99.90;;;;;;5064652;28;20276;-88
2022/12/09 08:44:18;;;;;;;24.20;12.97;;;-0.30;99.90;;;;;;5067034;28;20599;-88
2022/12/09 08:46:46;;;;;;;20.73;12.43;;;-0.40;99.90;;;;;;5066357;28;20183;-88
2022/12/09 08:49:16;;;;;;;21.33;11.77;;;-0.40;99.90;;;;;;5065773;28;20211;-88
2022/12/09 08:51:43;;;;;;;19.43;11.20;;;-0.40;99.90;;;;;;5070269;28;20172;-88
2022/12/09 08:54:09;;;;;;;20.33;11.20;;;-0.40;99.90;;;;;;5090766;28;20173;-88
2022/12/09 08:56:35;;;;;;;18.07;11.47;;;-0.40;99.90;;;;;;5061307;28;20303;-87
2022/12/09 08:59:03;;;;;;;19.33;10.67;;;-0.40;99.90;;;;;;5073504;28;20643;-87
2022/12/09 09:01:36;;;;;;;18.07;10.90;;;-0.40;99.90;;;;;;5061023;28;20200;-87
2022/12/09 09:04:08;;;;;;;18.97;11.30;;;-0.40;99.90;;;;;;5088670;28;20192;-87
2022/12/09 09:06:35;;;;;;;18.83;11.60;;;-0.40;99.90;;;;;;5065848;28;20279;-88
2022/12/09 09:09:01;;;;;;;19.20;10.57;;;-0.30;99.90;;;;;;5073491;28;20647;-88
2022/12/09 09:11:27;;;;;;;17.93;10.87;;;-0.30;99.90;;;;;;5080067;28;20175;-87
2022/12/09 09:13:52;;;;;;;16.33;10.03;;;-0.30;99.90;;;;;;5079920;28;20180;-87
2022/12/09 09:16:22;;;;;;;18.10;10.70;;;-0.20;99.90;;;;;;5079602;28;20259;-87
2022/12/09 09:18:48;;;;;;;20.00;11.30;;;-0.20;99.90;;;;;;5075104;28;20184;-87
2022/12/09 09:21:17;;;;;;;16.43;10.80;;;-0.10;99.90;;;;;;5075929;28;20176;-87
2022/12/09 09:23:43;;;;;;;18.80;11.47;;;0.00;99.90;;;;;;5076154;28;20185;-87
2022/12/09 09:26:14;;;;;;;21.03;12.13;;;0.00;99.90;;;;;;5075960;28;20515;-87
2022/12/09 09:28:40;;;;;;;22.30;12.77;;;0.00;99.90;;;;;;5078724;28;20634;-86
2022/12/09 09:31:09;;;;;;;21.83;13.70;;;0.10;99.90;;;;;;5078948;28;20184;-87
2022/12/09 09:33:35;;;;;;;17.67;10.57;;;0.20;99.90;;;;;;5078512;28;20549;-86
2022/12/09 09:36:04;;;;;;;19.67;11.40;;;0.20;99.90;;;;;;5078733;28;20172;-86
2022/12/09 09:38:31;;;;;;;25.17;12.83;;;0.30;99.90;;;;;;5078603;28;20564;-86
2022/12/09 09:41:06;;;;;;;22.50;12.67;;;0.20;99.90;;;;;;5075336;28;20230;-87
2022/12/09 09:43:36;;;;;;;17.70;10.57;;;0.20;99.90;;;;;;5088077;28;20175;-88
2022/12/09 09:46:03;;;;;;;19.10;11.93;;;0.20;99.90;;;;;;5078714;28;20599;-87
2022/12/09 09:48:32;;;;;;;17.93;10.83;;;0.20;99.90;;;;;;5059189;28;20205;-87
2022/12/09 09:51:17;;;;;;;17.93;10.93;;;0.20;99.90;;;;;;5076592;28;20219;-88
2022/12/09 09:53:48;;;;;;;16.83;10.93;;;0.20;99.90;;;;;;5058552;28;20256;-86
2022/12/09 09:56:26;;;;;;;19.33;11.87;;;0.30;99.90;;;;;;5058418;28;20162;-85
2022/12/09 09:59:16;;;;;;;19.37;11.60;;;0.30;99.90;;;;;;5072957;28;20184;-85
2022/12/09 10:01:53;;;;;;;21.17;10.77;;;0.40;99.90;;;;;;5096334;28;20543;-85
2022/12/09 10:04:48;;;;;;;21.37;11.90;;;0.40;99.90;;;;;;5077879;28;20176;-86
2022/12/09 10:07:26;;;;;;;19.53;12.27;;;0.50;99.90;;;;;;5066121;28;20578;-86
2022/12/09 10:10:09;;;;;;;20.00;11.60;;;0.50;99.90;;;;;;5078234;28;20203;-86
2022/12/09 10:13:03;;;;;;;18.27;11.80;;;0.60;99.90;;;;;;5077990;28;20261;-86
2022/12/09 10:15:37;;;;;;;23.67;12.60;;;0.60;99.90;;;;;;5077827;28;20232;-85
2022/12/09 10:18:27;;;;;;;22.37;13.47;;;0.60;99.90;;;;;;5077934;28;20188;-84
2022/12/09 10:20:53;;;;;;;23.03;14.27;;;0.70;99.90;;;;;;5077045;28;20565;-85
2022/12/09 10:23:20;;;;;;;22.80;12.73;;;0.70;99.90;;;;;;5077569;28;20292;-85
2022/12/09 10:25:51;;;;;;;20.37;12.07;;;0.70;99.90;;;;;;5077875;28;20192;-84
2022/12/09 10:28:24;;;;;;;22.10;12.67;;;0.60;99.90;;;;;;5095850;28;20290;-84
2022/12/09 10:30:52;;;;;;;21.50;12.20;;;0.70;99.90;;;;;;5095804;28;20165;-84
2022/12/09 10:33:31;;;;;;;21.10;12.37;;;0.70;99.90;;;;;;5077754;28;20173;-84
2022/12/09 10:35:57;;;;;;;40.87;21.50;;;0.70;99.90;;;;;;5095412;28;20160;-84
2022/12/09 10:38:24;;;;;;;37.33;20.50;;;0.70;99.90;;;;;;5076990;28;20180;-83
2022/12/09 10:40:58;;;;;;;35.73;19.43;;;0.70;99.90;;;;;;5095483;28;20846;-83
2022/12/09 10:43:42;;;;;;;27.87;17.23;;;0.70;99.90;;;;;;5095578;28;20165;-82
2022/12/09 10:46:12;;;;;;;24.57;15.63;;;0.70;99.90;;;;;;5080525;28;20173;-83
2022/12/09 10:48:46;;;;;;;26.77;15.00;;;0.70;99.90;;;;;;5057029;28;20204;-83
2022/12/09 10:51:23;;;;;;;24.63;15.43;;;0.80;99.90;;;;;;5056980;28;20184;-83
2022/12/09 10:54:04;;;;;;;21.50;12.47;;;0.80;99.90;;;;;;5074696;28;20252;-83
2022/12/09 10:56:37;;;;;;;22.10;13.20;;;0.90;99.90;;;;;;5074931;28;20164;-83
2022/12/09 10:59:08;;;;;;;20.83;12.97;;;1.00;99.90;;;;;;5056703;28;20189;-83
2022/12/09 11:01:55;;;;;;;21.90;13.73;;;1.00;99.90;;;;;;5056857;28;20851;-83
2022/12/09 11:04:34;;;;;;;26.73;16.07;;;1.10;99.90;;;;;;5056711;28;20509;-82
2022/12/09 11:07:09;;;;;;;26.40;16.20;;;1.10;99.90;;;;;;5061626;28;20271;-83
2022/12/09 11:09:40;;;;;;;20.13;12.27;;;1.10;99.90;;;;;;5076536;28;20626;-82
2022/12/09 11:12:26;;;;;;;18.40;12.40;;;1.10;99.90;;;;;;5094834;28;20504;-83
2022/12/09 11:14:53;;;;;;;23.13;14.60;;;1.20;99.90;;;;;;5094717;28;20219;-83
2022/12/09 11:17:23;;;;;;;24.13;15.20;;;1.20;99.90;;;;;;5076611;28;20548;-82
2022/12/09 11:19:53;;;;;;;20.47;12.40;;;1.20;99.90;;;;;;5094725;28;20633;-83
2022/12/09 11:22:37;;;;;;;22.03;12.60;;;1.20;99.90;;;;;;5076205;28;20184;-82
2022/12/09 11:25:14;;;;;;;19.23;11.17;;;1.30;99.90;;;;;;5094590;28;20175;-82
2022/12/09 11:27:56;;;;;;;20.47;12.30;;;1.30;99.90;;;;;;5094433;28;20207;-82
2022/12/09 11:30:26;;;;;;;22.23;12.40;;;1.30;99.90;;;;;;5076426;28;20558;-82
2022/12/09 11:32:55;;;;;;;20.63;12.97;;;1.30;99.90;;;;;;5076332;28;20173;-82
2022/12/09 11:35:36;;;;;;;24.20;12.80;;;1.30;99.90;;;;;;5094375;28;20184;-82
2022/12/09 11:38:30;;;;;;;29.53;16.23;;;1.30;99.90;;;;;;5094203;28;20184;-83
2022/12/09 11:41:05;;;;;;;25.27;12.63;;;1.30;99.90;;;;;;5094297;28;20160;-82
2022/12/09 11:43:47;;;;;;;23.00;14.30;;;1.40;99.90;;;;;;5094442;28;20168;-82
2022/12/09 11:46:13;;;;;;;25.93;13.87;;;1.30;99.90;;;;;;5094208;28;20171;-82
2022/12/09 11:48:57;;;;;;;24.33;13.30;;;1.30;99.90;;;;;;5094220;28;20208;-83
2022/12/09 11:51:37;;;;;;;22.47;13.33;;;1.30;99.90;;;;;;5080877;28;20183;-82
2022/12/09 11:54:24;;;;;;;25.80;14.60;;;1.30;99.90;;;;;;5073682;28;20166;-81
2022/12/09 11:56:51;;;;;;;27.07;15.43;;;1.40;99.90;;;;;;5073823;28;20177;-82
2022/12/09 11:59:21;;;;;;;26.77;15.10;;;1.40;99.90;;;;;;5073825;28;20169;-82
2022/12/09 12:02:20;;;;;;;22.47;14.13;;;1.40;99.90;;;;;;5076246;28;20259;-82
2022/12/09 12:04:57;;;;;;;23.97;13.27;;;1.40;99.90;;;;;;5086451;28;20689;-83
2022/12/09 12:07:46;;;;;;;22.80;13.63;;;1.40;99.90;;;;;;5070442;28;20186;-82
2022/12/09 12:10:25;;;;;;;23.20;12.77;;;1.40;99.90;;;;;;5094087;28;20214;-82
2022/12/09 12:13:08;;;;;;;25.47;13.23;;;1.40;99.90;;;;;;5086665;28;20619;-82
2022/12/09 12:15:40;;;;;;;23.53;14.93;;;1.40;99.90;;;;;;5063434;28;20325;-83
2022/12/09 12:18:15;;;;;;;24.80;13.77;;;1.50;99.90;;;;;;5087866;28;20514;-83
2022/12/09 12:20:52;;;;;;;19.97;12.90;;;1.60;99.90;;;;;;5071778;28;20210;-82
2022/12/09 12:23:53;;;;;;;26.40;15.13;;;1.70;99.90;;;;;;5076463;28;20181;-82
2022/12/09 12:26:24;;;;;;;27.43;16.13;;;1.90;99.90;;;;;;5000034;28;20199;-83
2022/12/09 12:29:16;;;;;;;29.00;16.93;;;1.90;99.90;;;;;;5072557;28;20205;-84
2022/12/09 12:32:09;;;;;;;24.90;15.23;;;2.00;99.90;;;;;;5072989;28;20161;-83
2022/12/09 12:34:44;;;;;;;27.03;14.83;;;2.00;99.90;;;;;;5072834;28;20193;-83
2022/12/09 12:37:38;;;;;;;23.77;13.67;;;2.00;99.90;;;;;;5075395;28;20208;-86
2022/12/09 12:40:12;;;;;;;23.13;13.80;;;2.00;99.90;;;;;;5083132;28;20274;-85
2022/12/09 12:46:30;;;;;;;22.87;14.40;;;1.90;99.90;;;;;;5087849;28;20187;-82
2022/12/09 12:48:56;;;;;;;29.23;13.43;;;1.80;99.90;;;;;;5082001;28;20258;-82
2022/12/09 12:51:37;;;;;;;22.47;13.97;;;1.90;99.90;;;;;;5082829;28;20173;-84
2022/12/09 12:54:15;;;;;;;24.03;13.30;;;1.90;99.90;;;;;;5077129;28;20192;-82
2022/12/09 12:57:01;;;;;;;22.00;13.30;;;1.90;99.90;;;;;;5076615;28;20184;-82